sensor_id;sensor_type;location;lat;lon;timestamp;temperature;humidity
29813;DHT22;16707;48.106;11.548;2022-07-17T00:00:22;14.70;99.90
29813;DHT22;16707;48.106;11.548;2022-07-17T00:02:50;14.60;99.90
29813;DHT22;16707;48.106;11.548;2022-07-17T00:05:21;14.40;99.90
29813;DHT22;16707;48.106;11.548;2022-07-17T00:07:52;14.30;99.90
29813;DHT22;16707;48.106;11.548;2022-07-17T00:10:26;14.20;99.90
29813;DHT22;16707;48.106;11.548;2022-07-17T00:12:59;14.20;99.90
29813;DHT22;16707;48.106;11.548;2022-07-17T00:15:29;14.10;99.90
29813;DHT22;16707;48.106;11.548;2022-07-17T00:17:59;14.00;99.90
29813;DHT22;16707;48.106;11.548;2022-07-17T00:20:33;13.90;99.90
29813;DHT22;16707;48.106;11.548;2022-07-17T00:23:05;13.90;99.90
29813;DHT22;16707;48.106;11.548;2022-07-17T00:25:32;14.00;99.90
29813;DHT22;16707;48.106;11.548;2022-07-17T00:28:00;13.90;99.90
29813;DHT22;16707;48.106;11.548;2022-07-17T00:30:27;13.80;99.90
29813;DHT22;16707;48.106;11.548;2022-07-17T00:33:08;13.70;99.90
29813;DHT22;16707;48.106;11.548;2022-07-17T00:35:42;13.60;99.90
29813;DHT22;16707;48.106;11.548;2022-07-17T00:38:14;13.60;99.90
29813;DHT22;16707;48.106;11.548;2022-07-17T00:40:53;13.50;99.90
29813;DHT22;16707;48.106;11.548;2022-07-17T00:43:29;13.40;99.90
29813;DHT22;16707;48.106;11.548;2022-07-17T00:46:02;13.40;99.90
29813;DHT22;16707;48.106;11.548;2022-07-17T00:48:40;13.30;99.90
29813;DHT22;16707;48.106;11.548;2022-07-17T00:51:07;13.30;99.90
29813;DHT22;16707;48.106;11.548;2022-07-17T00:53:37;13.30;99.90
29813;DHT22;16707;48.106;11.548;2022-07-17T00:56:20;13.20;99.90
29813;DHT22;16707;48.106;11.548;2022-07-17T00:58:52;13.20;99.90
29813;DHT22;16707;48.106;11.548;2022-07-17T01:01:19;13.20;99.90
29813;DHT22;16707;48.106;11.548;2022-07-17T01:03:55;13.10;99.90
29813;DHT22;16707;48.106;11.548;2022-07-17T01:06:28;13.10;99.90
29813;DHT22;16707;48.106;11.548;2022-07-17T01:09:11;13.10;99.90
29813;DHT22;16707;48.106;11.548;2022-07-17T01:11:48;13.10;99.90
29813;DHT22;16707;48.106;11.548;2022-07-17T01:14:16;13.20;99.90
29813;DHT22;16707;48.106;11.548;2022-07-17T01:16:49;13.20;99.90
29813;DHT22;16707;48.106;11.548;2022-07-17T01:19:26;13.10;99.90
29813;DHT22;16707;48.106;11.548;2022-07-17T01:22:05;13.10;99.90
29813;DHT22;16707;48.106;11.548;2022-07-17T01:24:46;13.00;99.90
29813;DHT22;16707;48.106;11.548;2022-07-17T01:27:40;12.90;99.90
29813;DHT22;16707;48.106;11.548;2022-07-17T01:30:12;12.90;99.90
29813;DHT22;16707;48.106;11.548;2022-07-17T01:32:41;12.80;99.90
29813;DHT22;16707;48.106;11.548;2022-07-17T01:35:15;12.80;99.90
29813;DHT22;16707;48.106;11.548;2022-07-17T01:37:46;12.80;99.90
29813;DHT22;16707;48.106;11.548;2022-07-17T01:40:26;12.70;99.90
29813;DHT22;16707;48.106;11.548;2022-07-17T01:42:56;12.70;99.90
29813;DHT22;16707;48.106;11.548;2022-07-17T01:45:31;12.70;99.90
29813;DHT22;16707;48.106;11.548;2022-07-17T01:48:00;12.70;99.90
29813;DHT22;16707;48.106;11.548;2022-07-17T01:50:32;12.60;99.90
29813;DHT22;16707;48.106;11.548;2022-07-17T01:53:07;12.60;99.90
29813;DHT22;16707;48.106;11.548;2022-07-17T01:55:37;12.60;99.90
29813;DHT22;16707;48.106;11.548;2022-07-17T01:58:05;12.60;99.90
29813;DHT22;16707;48.106;11.548;2022-07-17T02:00:36;12.60;99.90
29813;DHT22;16707;48.106;11.548;2022-07-17T02:03:03;12.50;99.90
29813;DHT22;16707;48.106;11.548;2022-07-17T02:05:30;12.50;99.90
29813;DHT22;16707;48.106;11.548;2022-07-17T02:07:57;12.40;99.90
29813;DHT22;16707;48.106;11.548;2022-07-17T02:10:26;12.40;99.90
29813;DHT22;16707;48.106;11.548;2022-07-17T02:12:57;12.40;99.90
29813;DHT22;16707;48.106;11.548;2022-07-17T02:15:25;12.40;99.90
29813;DHT22;16707;48.106;11.548;2022-07-17T02:17:52;12.30;99.90
29813;DHT22;16707;48.106;11.548;2022-07-17T02:20:19;12.30;99.90
29813;DHT22;16707;48.106;11.548;2022-07-17T02:22:47;12.30;99.90
29813;DHT22;16707;48.106;11.548;2022-07-17T02:25:17;12.20;99.90
29813;DHT22;16707;48.106;11.548;2022-07-17T02:27:56;12.20;99.90
29813;DHT22;16707;48.106;11.548;2022-07-17T02:30:24;12.30;99.90
29813;DHT22;16707;48.106;11.548;2022-07-17T02:32:52;12.20;99.90
29813;DHT22;16707;48.106;11.548;2022-07-17T02:35:19;12.20;99.90
29813;DHT22;16707;48.106;11.548;2022-07-17T02:37:49;12.20;99.90
29813;DHT22;16707;48.106;11.548;2022-07-17T02:40:19;12.10;99.90
29813;DHT22;16707;48.106;11.548;2022-07-17T02:42:49;12.10;99.90
29813;DHT22;16707;48.106;11.548;2022-07-17T02:45:18;12.10;99.90
29813;DHT22;16707;48.106;11.548;2022-07-17T02:47:56;12.10;99.90
29813;DHT22;16707;48.106;11.548;2022-07-17T02:50:26;12.00;99.90
29813;DHT22;16707;48.106;11.548;2022-07-17T02:53:03;12.10;99.90
29813;DHT22;16707;48.106;11.548;2022-07-17T02:55:32;12.10;99.90
29813;DHT22;16707;48.106;11.548;2022-07-17T02:58:00;12.10;99.90
29813;DHT22;16707;48.106;11.548;2022-07-17T03:00:32;12.10;99.90
29813;DHT22;16707;48.106;11.548;2022-07-17T03:02:59;12.10;99.90
29813;DHT22;16707;48.106;11.548;2022-07-17T03:05:33;12.10;99.90
29813;DHT22;16707;48.106;11.548;2022-07-17T03:08:08;12.10;99.90
29813;DHT22;16707;48.106;11.548;2022-07-17T03:10:39;12.10;99.90
29813;DHT22;16707;48.106;11.548;2022-07-17T03:13:10;12.00;99.90
29813;DHT22;16707;48.106;11.548;2022-07-17T03:15:40;12.10;99.90
29813;DHT22;16707;48.106;11.548;2022-07-17T03:18:13;12.00;99.90
29813;DHT22;16707;48.106;11.548;2022-07-17T03:20:44;11.90;99.90
29813;DHT22;16707;48.106;11.548;2022-07-17T03:23:19;11.90;99.90
29813;DHT22;16707;48.106;11.548;2022-07-17T03:25:52;11.90;99.90
29813;DHT22;16707;48.106;11.548;2022-07-17T03:28:45;11.90;99.90
29813;DHT22;16707;48.106;11.548;2022-07-17T03:31:27;11.90;99.90
29813;DHT22;16707;48.106;11.548;2022-07-17T03:34:11;11.90;99.90
29813;DHT22;16707;48.106;11.548;2022-07-17T03:36:48;11.80;99.90
29813;DHT22;16707;48.106;11.548;2022-07-17T03:39:22;11.80;99.90
29813;DHT22;16707;48.106;11.548;2022-07-17T03:42:10;11.90;99.90
29813;DHT22;16707;48.106;11.548;2022-07-17T03:44:43;11.90;99.90
29813;DHT22;16707;48.106;11.548;2022-07-17T03:47:18;11.90;99.90
29813;DHT22;16707;48.106;11.548;2022-07-17T03:49:49;11.90;99.90
29813;DHT22;16707;48.106;11.548;2022-07-17T03:52:25;12.00;99.90
29813;DHT22;16707;48.106;11.548;2022-07-17T03:55:02;12.00;99.90
29813;DHT22;16707;48.106;11.548;2022-07-17T03:57:39;12.00;99.90
29813;DHT22;16707;48.106;11.548;2022-07-17T04:00:15;12.00;99.90
29813;DHT22;16707;48.106;11.548;2022-07-17T04:02:55;12.10;99.90
29813;DHT22;16707;48.106;11.548;2022-07-17T04:05:46;12.30;99.90
29813;DHT22;16707;48.106;11.548;2022-07-17T04:08:21;12.30;99.90
29813;DHT22;16707;48.106;11.548;2022-07-17T04:13:54;12.40;99.90
29813;DHT22;16707;48.106;11.548;2022-07-17T04:16:37;12.40;99.90
29813;DHT22;16707;48.106;11.548;2022-07-17T04:19:12;12.50;99.90
29813;DHT22;16707;48.106;11.548;2022-07-17T04:21:51;12.50;99.90
29813;DHT22;16707;48.106;11.548;2022-07-17T04:24:40;12.60;99.90
29813;DHT22;16707;48.106;11.548;2022-07-17T04:27:19;12.70;99.90
29813;DHT22;16707;48.106;11.548;2022-07-17T04:29:56;12.80;99.90
29813;DHT22;16707;48.106;11.548;2022-07-17T04:32:35;13.00;99.90
29813;DHT22;16707;48.106;11.548;2022-07-17T04:35:19;13.10;99.90
29813;DHT22;16707;48.106;11.548;2022-07-17T04:38:10;13.30;99.90
29813;DHT22;16707;48.106;11.548;2022-07-17T04:40:44;13.40;99.90
29813;DHT22;16707;48.106;11.548;2022-07-17T04:43:13;13.40;99.90
29813;DHT22;16707;48.106;11.548;2022-07-17T04:45:42;14.60;99.90
29813;DHT22;16707;48.106;11.548;2022-07-17T04:48:13;18.00;99.00
29813;DHT22;16707;48.106;11.548;2022-07-17T04:50:44;20.60;82.50
29813;DHT22;16707;48.106;11.548;2022-07-17T04:53:28;23.90;69.50
29813;DHT22;16707;48.106;11.548;2022-07-17T04:56:07;26.50;58.30
29813;DHT22;16707;48.106;11.548;2022-07-17T04:58:35;28.10;53.90
29813;DHT22;16707;48.106;11.548;2022-07-17T05:01:08;29.20;50.50
29813;DHT22;16707;48.106;11.548;2022-07-17T05:03:44;30.30;47.90
29813;DHT22;16707;48.106;11.548;2022-07-17T05:06:29;31.20;46.30
29813;DHT22;16707;48.106;11.548;2022-07-17T05:09:02;31.90;44.30
29813;DHT22;16707;48.106;11.548;2022-07-17T05:11:33;32.70;42.70
29813;DHT22;16707;48.106;11.548;2022-07-17T05:14:09;33.20;41.60
29813;DHT22;16707;48.106;11.548;2022-07-17T05:16:39;33.60;40.90
29813;DHT22;16707;48.106;11.548;2022-07-17T05:19:08;33.90;40.10
29813;DHT22;16707;48.106;11.548;2022-07-17T05:21:46;34.80;38.40
29813;DHT22;16707;48.106;11.548;2022-07-17T05:24:23;35.50;37.40
29813;DHT22;16707;48.106;11.548;2022-07-17T05:27:05;36.30;35.80
29813;DHT22;16707;48.106;11.548;2022-07-17T05:29:38;37.00;34.10
29813;DHT22;16707;48.106;11.548;2022-07-17T05:32:15;37.80;33.40
29813;DHT22;16707;48.106;11.548;2022-07-17T05:34:55;38.00;31.50
29813;DHT22;16707;48.106;11.548;2022-07-17T05:37:28;38.50;30.00
29813;DHT22;16707;48.106;11.548;2022-07-17T05:39:59;37.80;29.70
29813;DHT22;16707;48.106;11.548;2022-07-17T05:42:27;38.20;29.20
29813;DHT22;16707;48.106;11.548;2022-07-17T05:44:54;38.30;29.60
29813;DHT22;16707;48.106;11.548;2022-07-17T05:47:28;37.60;29.40
29813;DHT22;16707;48.106;11.548;2022-07-17T05:50:09;40.20;28.00
29813;DHT22;16707;48.106;11.548;2022-07-17T05:52:38;40.50;27.60
29813;DHT22;16707;48.106;11.548;2022-07-17T05:55:09;39.80;27.30
29813;DHT22;16707;48.106;11.548;2022-07-17T05:57:45;40.70;26.60
29813;DHT22;16707;48.106;11.548;2022-07-17T06:00:21;40.80;26.90
29813;DHT22;16707;48.106;11.548;2022-07-17T06:02:48;40.10;27.10
29813;DHT22;16707;48.106;11.548;2022-07-17T06:05:15;40.60;26.40
29813;DHT22;16707;48.106;11.548;2022-07-17T06:07:53;39.40;27.10
29813;DHT22;16707;48.106;11.548;2022-07-17T06:10:31;39.20;27.60
29813;DHT22;16707;48.106;11.548;2022-07-17T06:13:01;40.40;26.50
29813;DHT22;16707;48.106;11.548;2022-07-17T06:15:29;40.60;25.90
29813;DHT22;16707;48.106;11.548;2022-07-17T06:18:04;41.90;25.50
29813;DHT22;16707;48.106;11.548;2022-07-17T06:20:50;41.00;25.50
29813;DHT22;16707;48.106;11.548;2022-07-17T06:23:22;41.00;25.80
29813;DHT22;16707;48.106;11.548;2022-07-17T06:25:50;40.70;25.20
29813;DHT22;16707;48.106;11.548;2022-07-17T06:28:24;39.70;25.70
29813;DHT22;16707;48.106;11.548;2022-07-17T06:30:52;39.80;25.40
29813;DHT22;16707;48.106;11.548;2022-07-17T06:33:25;40.90;24.40
29813;DHT22;16707;48.106;11.548;2022-07-17T06:35:53;40.10;25.80
29813;DHT22;16707;48.106;11.548;2022-07-17T06:38:21;40.60;25.00
29813;DHT22;16707;48.106;11.548;2022-07-17T06:40:54;40.40;24.00
29813;DHT22;16707;48.106;11.548;2022-07-17T06:43:24;39.90;24.70
29813;DHT22;16707;48.106;11.548;2022-07-17T06:45:51;40.10;24.20
29813;DHT22;16707;48.106;11.548;2022-07-17T06:48:20;43.90;23.00
29813;DHT22;16707;48.106;11.548;2022-07-17T06:50:47;42.80;22.40
29813;DHT22;16707;48.106;11.548;2022-07-17T06:53:15;44.60;21.80
29813;DHT22;16707;48.106;11.548;2022-07-17T06:55:44;46.80;21.30
29813;DHT22;16707;48.106;11.548;2022-07-17T06:58:13;43.30;21.30
29813;DHT22;16707;48.106;11.548;2022-07-17T07:00:43;42.00;22.90
29813;DHT22;16707;48.106;11.548;2022-07-17T07:03:11;43.00;22.80
29813;DHT22;16707;48.106;11.548;2022-07-17T07:05:43;42.90;22.50
29813;DHT22;16707;48.106;11.548;2022-07-17T07:08:13;41.70;23.20
29813;DHT22;16707;48.106;11.548;2022-07-17T07:10:45;42.30;22.80
29813;DHT22;16707;48.106;11.548;2022-07-17T07:13:12;42.40;22.50
29813;DHT22;16707;48.106;11.548;2022-07-17T07:15:45;44.10;22.10
29813;DHT22;16707;48.106;11.548;2022-07-17T07:18:12;45.40;21.70
29813;DHT22;16707;48.106;11.548;2022-07-17T07:20:40;44.40;21.50
29813;DHT22;16707;48.106;11.548;2022-07-17T07:23:08;42.30;22.10
29813;DHT22;16707;48.106;11.548;2022-07-17T07:25:35;39.90;22.20
29813;DHT22;16707;48.106;11.548;2022-07-17T07:28:06;37.40;24.10
29813;DHT22;16707;48.106;11.548;2022-07-17T07:30:36;35.00;26.20
29813;DHT22;16707;48.106;11.548;2022-07-17T07:33:03;32.70;28.00
29813;DHT22;16707;48.106;11.548;2022-07-17T07:35:31;31.10;31.00
29813;DHT22;16707;48.106;11.548;2022-07-17T07:37:58;29.60;32.80
29813;DHT22;16707;48.106;11.548;2022-07-17T07:40:28;28.60;35.90
29813;DHT22;16707;48.106;11.548;2022-07-17T07:42:58;28.00;36.10
29813;DHT22;16707;48.106;11.548;2022-07-17T07:45:26;26.90;37.30
29813;DHT22;16707;48.106;11.548;2022-07-17T07:47:59;25.70;39.60
29813;DHT22;16707;48.106;11.548;2022-07-17T07:50:30;25.30;40.80
29813;DHT22;16707;48.106;11.548;2022-07-17T07:52:57;24.80;43.00
29813;DHT22;16707;48.106;11.548;2022-07-17T07:55:24;24.40;44.40
29813;DHT22;16707;48.106;11.548;2022-07-17T07:58:01;23.70;43.60
29813;DHT22;16707;48.106;11.548;2022-07-17T08:00:34;23.40;43.90
29813;DHT22;16707;48.106;11.548;2022-07-17T08:03:01;23.40;44.40
29813;DHT22;16707;48.106;11.548;2022-07-17T08:05:29;23.50;45.10
29813;DHT22;16707;48.106;11.548;2022-07-17T08:08:00;23.40;45.70
29813;DHT22;16707;48.106;11.548;2022-07-17T08:10:27;23.40;45.10
29813;DHT22;16707;48.106;11.548;2022-07-17T08:13:00;23.50;45.50
29813;DHT22;16707;48.106;11.548;2022-07-17T08:15:31;23.30;45.90
29813;DHT22;16707;48.106;11.548;2022-07-17T08:17:59;23.20;45.50
29813;DHT22;16707;48.106;11.548;2022-07-17T08:20:32;23.20;45.50
29813;DHT22;16707;48.106;11.548;2022-07-17T08:23:02;23.10;44.50
29813;DHT22;16707;48.106;11.548;2022-07-17T08:25:33;23.00;45.50
29813;DHT22;16707;48.106;11.548;2022-07-17T08:28:01;23.00;45.70
29813;DHT22;16707;48.106;11.548;2022-07-17T08:30:32;23.00;46.40
29813;DHT22;16707;48.106;11.548;2022-07-17T08:33:05;23.00;46.30
29813;DHT22;16707;48.106;11.548;2022-07-17T08:35:45;23.00;46.70
29813;DHT22;16707;48.106;11.548;2022-07-17T08:38:17;23.10;45.50
29813;DHT22;16707;48.106;11.548;2022-07-17T08:40:47;23.20;45.30
29813;DHT22;16707;48.106;11.548;2022-07-17T08:43:24;23.30;45.50
29813;DHT22;16707;48.106;11.548;2022-07-17T08:45:53;23.10;46.00
29813;DHT22;16707;48.106;11.548;2022-07-17T08:48:22;23.20;45.00
29813;DHT22;16707;48.106;11.548;2022-07-17T08:51:01;23.20;45.40
29813;DHT22;16707;48.106;11.548;2022-07-17T08:53:32;23.30;45.20
29813;DHT22;16707;48.106;11.548;2022-07-17T08:56:00;23.30;44.60
29813;DHT22;16707;48.106;11.548;2022-07-17T08:58:37;23.30;44.40
29813;DHT22;16707;48.106;11.548;2022-07-17T09:01:08;23.40;45.40
29813;DHT22;16707;48.106;11.548;2022-07-17T09:03:52;23.50;45.10
29813;DHT22;16707;48.106;11.548;2022-07-17T09:06:31;23.50;43.80
29813;DHT22;16707;48.106;11.548;2022-07-17T09:09:03;23.50;44.20
29813;DHT22;16707;48.106;11.548;2022-07-17T09:11:42;23.50;44.80
29813;DHT22;16707;48.106;11.548;2022-07-17T09:14:10;23.60;43.50
29813;DHT22;16707;48.106;11.548;2022-07-17T09:16:51;23.70;44.30
29813;DHT22;16707;48.106;11.548;2022-07-17T09:19:29;23.70;43.90
29813;DHT22;16707;48.106;11.548;2022-07-17T09:22:14;23.70;44.50
29813;DHT22;16707;48.106;11.548;2022-07-17T09:24:52;23.50;45.70
29813;DHT22;16707;48.106;11.548;2022-07-17T09:27:31;23.50;46.60
29813;DHT22;16707;48.106;11.548;2022-07-17T09:30:08;23.60;45.90
29813;DHT22;16707;48.106;11.548;2022-07-17T09:32:48;23.60;46.70
29813;DHT22;16707;48.106;11.548;2022-07-17T09:35:21;23.60;45.30
29813;DHT22;16707;48.106;11.548;2022-07-17T09:37:53;23.60;44.90
29813;DHT22;16707;48.106;11.548;2022-07-17T09:40:22;23.70;44.90
29813;DHT22;16707;48.106;11.548;2022-07-17T09:43:10;23.70;45.30
29813;DHT22;16707;48.106;11.548;2022-07-17T09:45:49;23.80;45.10
29813;DHT22;16707;48.106;11.548;2022-07-17T09:48:17;23.70;44.10
29813;DHT22;16707;48.106;11.548;2022-07-17T09:50:50;23.70;44.90
29813;DHT22;16707;48.106;11.548;2022-07-17T09:53:29;23.80;45.50
29813;DHT22;16707;48.106;11.548;2022-07-17T09:55:59;24.00;44.80
29813;DHT22;16707;48.106;11.548;2022-07-17T09:58:42;24.00;45.20
29813;DHT22;16707;48.106;11.548;2022-07-17T10:01:17;24.00;44.40
29813;DHT22;16707;48.106;11.548;2022-07-17T10:03:47;23.90;44.40
29813;DHT22;16707;48.106;11.548;2022-07-17T10:06:21;24.10;44.10
29813;DHT22;16707;48.106;11.548;2022-07-17T10:08:53;24.20;44.90
29813;DHT22;16707;48.106;11.548;2022-07-17T10:11:28;24.30;44.90
29813;DHT22;16707;48.106;11.548;2022-07-17T10:14:08;24.50;43.30
29813;DHT22;16707;48.106;11.548;2022-07-17T10:16:37;24.40;43.00
29813;DHT22;16707;48.106;11.548;2022-07-17T10:19:16;24.40;44.20
29813;DHT22;16707;48.106;11.548;2022-07-17T10:22:00;24.40;44.10
29813;DHT22;16707;48.106;11.548;2022-07-17T10:24:31;24.30;43.90
29813;DHT22;16707;48.106;11.548;2022-07-17T10:27:01;24.40;44.10
29813;DHT22;16707;48.106;11.548;2022-07-17T10:29:38;24.40;44.00
29813;DHT22;16707;48.106;11.548;2022-07-17T10:32:13;24.40;43.00
29813;DHT22;16707;48.106;11.548;2022-07-17T10:34:44;24.30;42.90
29813;DHT22;16707;48.106;11.548;2022-07-17T10:37:25;24.40;41.80
29813;DHT22;16707;48.106;11.548;2022-07-17T10:40:03;24.50;42.50
29813;DHT22;16707;48.106;11.548;2022-07-17T10:42:38;24.60;42.60
29813;DHT22;16707;48.106;11.548;2022-07-17T10:45:21;24.60;42.50
29813;DHT22;16707;48.106;11.548;2022-07-17T10:47:52;24.60;42.40
29813;DHT22;16707;48.106;11.548;2022-07-17T10:50:30;24.50;42.70
29813;DHT22;16707;48.106;11.548;2022-07-17T10:53:13;24.70;42.40
29813;DHT22;16707;48.106;11.548;2022-07-17T10:55:44;24.80;42.70
29813;DHT22;16707;48.106;11.548;2022-07-17T10:58:23;24.90;41.10
29813;DHT22;16707;48.106;11.548;2022-07-17T11:01:05;24.80;41.00
29813;DHT22;16707;48.106;11.548;2022-07-17T11:03:40;24.80;41.10
29813;DHT22;16707;48.106;11.548;2022-07-17T11:06:17;24.80;41.60
29813;DHT22;16707;48.106;11.548;2022-07-17T11:08:55;24.90;41.80
29813;DHT22;16707;48.106;11.548;2022-07-17T11:11:34;24.90;40.80
29813;DHT22;16707;48.106;11.548;2022-07-17T11:14:13;24.80;40.30
29813;DHT22;16707;48.106;11.548;2022-07-17T11:16:47;24.90;40.20
29813;DHT22;16707;48.106;11.548;2022-07-17T11:19:24;24.90;41.20
29813;DHT22;16707;48.106;11.548;2022-07-17T11:22:01;25.00;41.30
29813;DHT22;16707;48.106;11.548;2022-07-17T11:24:37;25.20;40.50
29813;DHT22;16707;48.106;11.548;2022-07-17T11:27:20;25.20;38.70
29813;DHT22;16707;48.106;11.548;2022-07-17T11:29:54;25.20;38.40
29813;DHT22;16707;48.106;11.548;2022-07-17T11:32:34;25.10;39.50
29813;DHT22;16707;48.106;11.548;2022-07-17T11:35:23;25.20;38.60
29813;DHT22;16707;48.106;11.548;2022-07-17T11:37:56;25.20;39.30
29813;DHT22;16707;48.106;11.548;2022-07-17T11:40:30;25.30;39.50
29813;DHT22;16707;48.106;11.548;2022-07-17T11:43:01;25.60;39.90
29813;DHT22;16707;48.106;11.548;2022-07-17T11:45:31;25.70;38.90
29813;DHT22;16707;48.106;11.548;2022-07-17T11:48:00;25.60;39.50
29813;DHT22;16707;48.106;11.548;2022-07-17T11:50:31;25.50;38.80
29813;DHT22;16707;48.106;11.548;2022-07-17T11:53:08;25.40;38.40
29813;DHT22;16707;48.106;11.548;2022-07-17T11:55:38;25.20;39.10
29813;DHT22;16707;48.106;11.548;2022-07-17T11:58:15;25.20;39.30
29813;DHT22;16707;48.106;11.548;2022-07-17T12:00:42;25.10;38.80
29813;DHT22;16707;48.106;11.548;2022-07-17T12:03:10;25.30;39.10
29813;DHT22;16707;48.106;11.548;2022-07-17T12:05:41;25.40;39.30
29813;DHT22;16707;48.106;11.548;2022-07-17T12:08:20;25.50;39.20
29813;DHT22;16707;48.106;11.548;2022-07-17T12:11:08;25.60;38.50
29813;DHT22;16707;48.106;11.548;2022-07-17T12:13:43;25.40;38.20
29813;DHT22;16707;48.106;11.548;2022-07-17T12:16:27;25.40;39.30
29813;DHT22;16707;48.106;11.548;2022-07-17T12:19:05;25.30;38.30
29813;DHT22;16707;48.106;11.548;2022-07-17T12:21:55;25.30;38.20
29813;DHT22;16707;48.106;11.548;2022-07-17T12:24:27;25.50;39.20
29813;DHT22;16707;48.106;11.548;2022-07-17T12:27:00;25.60;39.40
29813;DHT22;16707;48.106;11.548;2022-07-17T12:29:48;25.80;38.30
29813;DHT22;16707;48.106;11.548;2022-07-17T12:32:22;25.80;37.90
29813;DHT22;16707;48.106;11.548;2022-07-17T12:34:54;25.90;36.30
29813;DHT22;16707;48.106;11.548;2022-07-17T12:37:25;25.80;36.70
29813;DHT22;16707;48.106;11.548;2022-07-17T12:39:55;26.00;36.50
29813;DHT22;16707;48.106;11.548;2022-07-17T12:42:30;26.10;37.00
29813;DHT22;16707;48.106;11.548;2022-07-17T12:44:58;26.30;37.00
29813;DHT22;16707;48.106;11.548;2022-07-17T12:47:34;26.20;36.30
29813;DHT22;16707;48.106;11.548;2022-07-17T12:50:11;26.00;36.80
29813;DHT22;16707;48.106;11.548;2022-07-17T12:52:38;25.90;36.00
29813;DHT22;16707;48.106;11.548;2022-07-17T12:55:08;26.00;36.10
29813;DHT22;16707;48.106;11.548;2022-07-17T12:57:49;26.20;36.90
29813;DHT22;16707;48.106;11.548;2022-07-17T13:00:16;26.20;36.50
29813;DHT22;16707;48.106;11.548;2022-07-17T13:02:43;26.20;36.40
29813;DHT22;16707;48.106;11.548;2022-07-17T13:05:19;26.20;36.20
29813;DHT22;16707;48.106;11.548;2022-07-17T13:07:52;26.30;36.70
29813;DHT22;16707;48.106;11.548;2022-07-17T13:10:23;26.20;34.30
29813;DHT22;16707;48.106;11.548;2022-07-17T13:12:53;26.10;34.80
29813;DHT22;16707;48.106;11.548;2022-07-17T13:15:25;26.30;35.50
29813;DHT22;16707;48.106;11.548;2022-07-17T13:17:55;26.40;34.10
29813;DHT22;16707;48.106;11.548;2022-07-17T13:20:26;26.50;33.30
29813;DHT22;16707;48.106;11.548;2022-07-17T13:22:58;26.60;33.90
29813;DHT22;16707;48.106;11.548;2022-07-17T13:25:25;26.60;34.50
29813;DHT22;16707;48.106;11.548;2022-07-17T13:28:00;26.80;34.80
29813;DHT22;16707;48.106;11.548;2022-07-17T13:30:30;26.70;34.80
29813;DHT22;16707;48.106;11.548;2022-07-17T13:32:58;26.50;35.40
29813;DHT22;16707;48.106;11.548;2022-07-17T13:35:25;26.80;35.80
29813;DHT22;16707;48.106;11.548;2022-07-17T13:37:57;26.80;34.10
29813;DHT22;16707;48.106;11.548;2022-07-17T13:40:27;26.80;34.50
29813;DHT22;16707;48.106;11.548;2022-07-17T13:42:57;26.90;34.70
29813;DHT22;16707;48.106;11.548;2022-07-17T13:45:27;26.80;34.40
29813;DHT22;16707;48.106;11.548;2022-07-17T13:48:01;26.80;34.00
29813;DHT22;16707;48.106;11.548;2022-07-17T13:50:29;26.80;34.90
29813;DHT22;16707;48.106;11.548;2022-07-17T13:53:00;26.80;34.50
29813;DHT22;16707;48.106;11.548;2022-07-17T13:55:36;26.70;34.00
29813;DHT22;16707;48.106;11.548;2022-07-17T13:58:03;26.70;34.00
29813;DHT22;16707;48.106;11.548;2022-07-17T14:00:39;26.80;34.80
29813;DHT22;16707;48.106;11.548;2022-07-17T14:03:13;26.80;35.10
29813;DHT22;16707;48.106;11.548;2022-07-17T14:05:40;26.80;32.50
29813;DHT22;16707;48.106;11.548;2022-07-17T14:08:08;26.70;32.80
29813;DHT22;16707;48.106;11.548;2022-07-17T14:10:38;26.70;33.50
29813;DHT22;16707;48.106;11.548;2022-07-17T14:13:08;26.70;33.70
29813;DHT22;16707;48.106;11.548;2022-07-17T14:15:37;26.60;33.80
29813;DHT22;16707;48.106;11.548;2022-07-17T14:18:04;26.50;34.30
29813;DHT22;16707;48.106;11.548;2022-07-17T14:20:32;26.70;35.60
29813;DHT22;16707;48.106;11.548;2022-07-17T14:22:59;26.80;34.30
29813;DHT22;16707;48.106;11.548;2022-07-17T14:25:32;26.70;34.20
29813;DHT22;16707;48.106;11.548;2022-07-17T14:27:59;26.50;33.20
29813;DHT22;16707;48.106;11.548;2022-07-17T14:30:26;26.50;34.20
29813;DHT22;16707;48.106;11.548;2022-07-17T14:33:01;26.70;33.40
29813;DHT22;16707;48.106;11.548;2022-07-17T14:35:28;26.70;34.20
29813;DHT22;16707;48.106;11.548;2022-07-17T14:37:57;26.90;34.00
29813;DHT22;16707;48.106;11.548;2022-07-17T14:40:25;26.70;33.50
29813;DHT22;16707;48.106;11.548;2022-07-17T14:42:53;26.70;33.10
29813;DHT22;16707;48.106;11.548;2022-07-17T14:45:21;26.70;34.30
29813;DHT22;16707;48.106;11.548;2022-07-17T14:47:51;26.50;34.80
29813;DHT22;16707;48.106;11.548;2022-07-17T14:50:23;26.50;34.90
29813;DHT22;16707;48.106;11.548;2022-07-17T14:52:53;26.60;36.00
29813;DHT22;16707;48.106;11.548;2022-07-17T14:55:24;26.70;35.40
29813;DHT22;16707;48.106;11.548;2022-07-17T14:57:51;26.70;34.40
29813;DHT22;16707;48.106;11.548;2022-07-17T15:00:22;26.70;34.20
29813;DHT22;16707;48.106;11.548;2022-07-17T15:02:52;26.80;34.90
29813;DHT22;16707;48.106;11.548;2022-07-17T15:05:24;26.80;34.00
29813;DHT22;16707;48.106;11.548;2022-07-17T15:07:58;26.70;34.80
29813;DHT22;16707;48.106;11.548;2022-07-17T15:10:28;26.70;34.30
29813;DHT22;16707;48.106;11.548;2022-07-17T15:12:56;26.50;32.80
29813;DHT22;16707;48.106;11.548;2022-07-17T15:15:26;26.40;32.90
29813;DHT22;16707;48.106;11.548;2022-07-17T15:17:58;26.50;33.60
29813;DHT22;16707;48.106;11.548;2022-07-17T15:20:26;26.40;32.70
29813;DHT22;16707;48.106;11.548;2022-07-17T15:22:59;26.30;32.90
29813;DHT22;16707;48.106;11.548;2022-07-17T15:25:27;26.40;33.70
29813;DHT22;16707;48.106;11.548;2022-07-17T15:27:56;26.50;33.20
29813;DHT22;16707;48.106;11.548;2022-07-17T15:30:24;26.50;33.20
29813;DHT22;16707;48.106;11.548;2022-07-17T15:32:51;26.60;32.80
29813;DHT22;16707;48.106;11.548;2022-07-17T15:35:19;26.50;33.80
29813;DHT22;16707;48.106;11.548;2022-07-17T15:37:52;26.50;33.50
29813;DHT22;16707;48.106;11.548;2022-07-17T15:40:20;26.50;34.30
29813;DHT22;16707;48.106;11.548;2022-07-17T15:42:52;26.50;32.80
29813;DHT22;16707;48.106;11.548;2022-07-17T15:45:21;26.40;32.70
29813;DHT22;16707;48.106;11.548;2022-07-17T15:47:49;26.40;33.40
29813;DHT22;16707;48.106;11.548;2022-07-17T15:50:16;26.40;34.50
29813;DHT22;16707;48.106;11.548;2022-07-17T15:52:54;26.40;34.60